• Join FlightAware (Why Join?)
  • Login
  • US Flag GB Flag 
01:26 EDT


 

Airport Tracker/Info


-or-


 

Live Flight TrackerFlight Track Log ✈ N829TG ✈ 11-May-2013 ✈ KGSP - KNEW

Flight Track Log - Related Links

Times and Time Zones

All times are in EDT time to prevent confusion due to time zone crossing. See the N829TG flight status page for this flight to view local times or setup timezone preferences in your user account.

Time Position Orientation Groundspeed Altitude Reporting Facility
EDT Latitude Longitude Course Direction KTS MPH feet Rate Location/Type
08:41 34.8250 -82.2753 223° Southwest 211 243 3,000  Level Atlanta Center
08:42 34.7800 -82.3292 225° Southwest 225 259 4,500 1,800 Climbing Atlanta Center
08:43 34.7347 -82.3883 227° Southwest 236 272 6,600 1,980 Climbing Atlanta Center
08:44 34.6897 -82.4422 225° Southwest 236 272 8,500 1,920 Climbing Atlanta Center
08:45 34.6467 -82.4986 227° Southwest 236 272 10,500 2,040 Climbing Atlanta Center
08:46 34.5579 -82.5995 223° Southwest  Level FlightAware Approximate
08:46 34.5992 -82.5550 224° Southwest 224 258 12,600  Level Atlanta Center
08:47 34.5519 -82.6114 225° Southwest 232 267 14,100 1,440 Climbing Atlanta Center
08:49 34.4717 -82.7236 229° Southwest 226 260 17,000 1,500 Climbing Atlanta Center
08:50 34.4264 -82.7797 226° Southwest 234 269 18,600 1,500 Climbing Atlanta Center
08:51 34.3894 -82.8456 236° Southwest 234 269 20,100 1,500 Climbing Atlanta Center
08:52 34.3567 -82.9139 240° Southwest 234 269 21,700 1,500 Climbing Atlanta Center
08:53 34.3281 -82.9847 244° Southwest 234 269 23,200 1,500 Climbing Atlanta Center
08:54 34.2953 -83.0531 240° Southwest 239 275 24,800 1,560 Climbing Atlanta Center
08:55 34.2606 -83.1264 240° Southwest 239 275 26,400 1,560 Climbing Atlanta Center
08:56 34.2297 -83.1894 239° Southwest 229 264 28,000 1,500 Climbing Atlanta Center
08:57 34.1986 -83.2528 239° Southwest 229 264 29,500 1,200 Climbing Atlanta Center
08:58 34.1700 -83.3131 240° Southwest 222 255 30,500 1,080 Climbing Atlanta Center
08:59 34.1389 -83.3761 239° Southwest 222 255 31,700 1,140 Climbing Atlanta Center
09:00 34.1081 -83.4392 239° Southwest 227 261 32,800 1,020 Climbing Atlanta Center
09:01 34.0792 -83.5072 243° Southwest 227 261 33,800 600 Climbing Atlanta Center
09:02 34.0481 -83.5725 240° Southwest 227 261 34,000 60 Climbing Atlanta Center
09:03 34.0106 -83.6453 238° Southwest 243 280 34,000  Level Atlanta Center
09:04 33.9733 -83.7256 241° Southwest 270 311 34,000  Level Atlanta Center
09:05 33.9381 -83.8008 241° Southwest 284 327 34,000  Level Atlanta Center
09:06 33.8964 -83.8836 239° Southwest 289 333 34,000 240 Level Atlanta Center
09:07 33.8547 -83.9714 240° Southwest 294 338 34,500 960 Climbing Atlanta Center
09:08 33.8089 -84.0414 232° Southwest 281 323 36,000 1,440 Climbing Atlanta Center
09:09 33.7650 -84.1039 230° Southwest 260 299 37,400 960 Climbing Atlanta Center
09:10 33.7233 -84.1661 231° Southwest 239 275 38,000 300 Climbing Atlanta Center
09:11 33.6878 -84.2211 232° Southwest 233 268 38,000  Level Atlanta Center
09:12 33.6417 -84.2858 229° Southwest 233 268 38,000  Level Atlanta Center
09:13 33.5933 -84.3606 232° Southwest 239 275 38,000 -60 Level Atlanta Center
09:14 33.5453 -84.4278 229° Southwest 264 304 37,900  Descending Atlanta Center
09:15 33.5011 -84.4972 233° Southwest 270 311 38,000  Climbing Atlanta Center
09:16 33.4572 -84.5592 230° Southwest 275 316 38,000  Level Atlanta Center
09:17 33.4108 -84.6311 232° Southwest 275 316 38,000  Level Atlanta Center
09:18 33.3625 -84.7003 230° Southwest 280 322 38,000  Level Atlanta Center
09:19 33.3142 -84.7722 231° Southwest 280 322 38,000  Level Atlanta Center
09:20 33.2656 -84.8439 231° Southwest 280 322 38,000  Level Atlanta Center
09:21 33.2108 -84.9178 228° Southwest 280 322 38,000  Level Atlanta Center
09:22 33.1644 -84.9892 232° Southwest 280 322 38,000  Level Atlanta Center
09:23 33.1158 -85.0606 231° Southwest 280 322 38,000  Level Atlanta Center
09:24 33.0653 -85.1294 229° Southwest 280 322 38,000  Level Atlanta Center
09:25 33.0164 -85.1983 230° Southwest 280 322 38,000  Level Atlanta Center
09:26 32.9678 -85.2694 231° Southwest 280 322 38,000  Level Atlanta Center
09:27 32.9192 -85.3406 231° Southwest 280 322 38,000  Level Atlanta Center
09:28 32.8683 -85.4089 228° Southwest 280 322 38,000  Level Atlanta Center
09:29 32.8194 -85.4822 232° Southwest 280 322 38,000  Level Atlanta Center
09:30 32.7683 -85.5531 229° Southwest 280 322 38,000  Level Atlanta Center
09:31 32.7217 -85.6214 231° Southwest 280 322 38,000  Level Atlanta Center
09:32 32.6706 -85.6944 230° Southwest 280 322 38,000  Level Atlanta Center
09:33 32.6194 -85.7653 229° Southwest 280 322 38,000  Level Atlanta Center
09:34 32.5706 -85.8356 230° Southwest 280 322 38,000  Level Atlanta Center
09:35 32.5194 -85.9061 229° Southwest 280 322 38,000  Level Atlanta Center
09:36 32.4828 -85.9792 239° Southwest 305 351 38,000  Level Atlanta Center
09:37 32.4794 -86.0653 267° West 277 319 38,000  Level Atlanta Center
09:38 32.4756 -86.1611 267° West 267 307 38,000  Level Atlanta Center
09:39 32.4761 -86.2475 270° West 273 314 38,000  Level Atlanta Center
09:40 32.4725 -86.3358 267° West 273 314 38,000  Level Atlanta Center
09:41 32.4728 -86.4269 270° West 273 314 38,000  Level Atlanta Center
09:42 32.4711 -86.5156 269° West 273 314 38,000  Level Atlanta Center
09:43 32.4697 -86.5844 269° West 273 314 38,000  Level Atlanta Center
09:44 32.4653 -86.6903 267° West 274 315 38,000  Level Atlanta Center
09:45 32.4597 -86.7639 265° West 268 308 38,000  Level Atlanta Center
09:46 32.4578 -86.8500 268° West 263 303 38,000  Level Atlanta Center
09:47 32.4556 -86.9386 268° West 268 308 38,000  Level Atlanta Center
09:48 32.4514 -87.0247 267° West 268 308 38,000  Level Atlanta Center
09:49 32.4472 -87.1156 267° West 273 314 38,000  Level Atlanta Center
09:50 32.4469 -87.2042 270° West 273 314 38,000  Level Atlanta Center
09:51 32.4261 -87.2869 253° West 273 314 38,000  Level Atlanta Center
09:52 32.3964 -87.3842 250° West 281 323 38,000  Level Atlanta Center
09:53 32.3669 -87.4644 247° West 281 323 38,000  Level Atlanta Center
09:54 32.3417 -87.5469 250° West 281 323 38,000  Level Atlanta Center
09:55 32.3122 -87.6269 246° West 275 316 38,000  Level Atlanta Center
09:56 32.2850 -87.7069 248° West 270 311 38,000  Level Atlanta Center
09:57 32.2572 -87.7917 249° West 270 311 38,000  Level Atlanta Center
09:58 32.2297 -87.8739 248° West 270 311 38,000  Level Atlanta Center
09:59 32.2022 -87.9561 248° West 270 311 38,000  Level Atlanta Center
10:01 32.1564 -88.0828 247° West 276 318 38,000  Level Memphis Center
10:02 32.1286 -88.1642 248° West 276 318 38,000  Level Memphis Center
10:03 32.1047 -88.2408 250° West 271 312 38,000  Level Memphis Center
10:04 32.0769 -88.3250 249° West 271 312 38,000  Level Memphis Center
10:05 32.0469 -88.4089 247° West 271 312 38,000 -300 Level Memphis Center
10:06 32.0192 -88.4928 249° West 271 312 37,400 -840 Descending Memphis Center
10:07 31.9889 -88.5767 247° West 276 318 36,400 -600 Descending Memphis Center
10:08 31.9589 -88.6631 248° West 281 323 36,200 -540 Descending Memphis Center
10:09 31.9225 -88.7592 246° West 291 335 35,400 -960 Descending Memphis Center
10:11 31.8522 -88.9653 248° West 301 346 33,100 -1,020 Descending Houston Center
10:12 31.8189 -89.0572 247° West 308 354 32,100 -1,020 Descending Houston Center
10:13 31.7853 -89.1542 248° West 320 368 31,100 -1,020 Descending Houston Center
10:14 31.7494 -89.2561 248° West 335 386 30,100 -1,020 Descending Houston Center
10:15 31.7144 -89.3561 248° West 335 386 29,100 -1,080 Descending Houston Center
10:16 31.6783 -89.4550 247° West 332 382 28,000 -1,140 Descending Houston Center
10:17 31.6092 -89.5442 228° Southwest 332 382 26,900 -1,080 Descending Houston Center
10:18 31.5369 -89.6122 219° Southwest 334 384 25,800 -1,200 Descending Houston Center
10:19 31.4639 -89.6819 219° Southwest 337 388 24,500 -1,320 Descending Houston Center
10:20 31.3911 -89.7514 219° Southwest 339 390 23,200 -1,320 Descending Houston Center
10:21 31.3203 -89.8186 219° Southwest 331 381 21,800 -1,380 Descending Houston Center
10:22 31.2506 -89.8842 219° Southwest 323 372 20,400 -1,500 Descending Houston Center
10:23 31.1650 -89.9658 219° Southwest 331 381 18,800 -1,440 Descending Houston Center
10:24 31.0953 -90.0311 219° Southwest 325 374 17,500 -1,320 Descending Houston Center
10:25 31.0289 -90.0936 219° Southwest 310 357 16,100 -1,380 Descending Houston Center
10:26 30.9617 -90.1553 218° Southwest 309 356 14,800 -1,320 Descending Houston Center
10:27 30.8939 -90.2183 219° Southwest 311 358 13,400 -1,500 Descending Houston Center
10:28 30.8611 -90.2278 194° South 326 375 12,900 -1,380 Descending Houston Center
10:28 30.8031 -90.2211 174° South 331 381 12,000 -1,320 Descending Houston Center
10:29 30.7708 -90.2144 170° South 330 380 11,600 -1,380 Descending Houston Center
10:29 30.7208 -90.1928 160° South 315 362 10,600 -1,680 Descending Houston Center
10:30 30.6739 -90.1797 167° South 289 333 9,600 -1,560 Descending Houston Center
10:30 30.6444 -90.1678 161° South 293 337 9,000 -1,500 Descending Houston Center
10:31 30.5978 -90.1539 166° South 280 322 8,100 -1,920 Descending Houston Center
10:31 30.5553 -90.1375 162° South 282 325 7,100 -1,620 Descending Houston Center
10:32 30.5261 -90.1303 168° South 274 315 6,500 -1,200 Descending Houston Center
10:32 30.4975 -90.1183 160° South 276 318 5,900 -1,620 Descending Houston Center
10:33 30.4542 -90.1067 167° South 262 302 4,900 -1,860 Descending Houston Center
10:34 30.4158 -90.0906 160° South 263 303 4,000 -1,500 Descending Houston Center
10:34 30.3867 -90.0831 167° South 249 287 3,400 -1,380 Descending Houston Center
10:35 30.3533 -90.0700 161° South 251 289 2,600 -1,200 Descending Houston Center
10:35 30.3211 -90.0617 167° South 210 242 2,100 -600 Descending Houston Center
10:36 30.3000 -90.0525 159° South 223 257 2,000 -120 Descending Houston Center
10:36 30.2747 -90.0469 169° South 163 188 2,000  Level Houston Center
10:37 30.2583 -90.0381 155° Southeast 185 213 2,000 -240 Level Houston Center
10:37 30.2303 -90.0319 169° South 150 173 1,800 -300 Descending Houston Center
10:38 30.2142 -90.0306 176° South 171 197 1,700 -120 Descending Houston Center
10:38 30.1867 -90.0339 186° South 163 188 1,700  Level Houston Center
10:39 30.1622 -90.0314 175° South 164 189 1,700  Level Houston Center
10:39 30.1447 -90.0331 185° South 147 169 1,700 -240 Level Houston Center
10:40 30.1222 -90.0317 177° South 154 177 1,500 -600 Descending Houston Center
10:40 30.1050 -90.0325 182° South 130 150 1,100 -780 Descending Houston Center
10:41 30.0881 -90.0306 174° South 139 160 700 -720 Descending Houston Center
10:41 30.0736 -90.0314 183° South 109 125 400 -120 Descending Houston Center
10:42 30.0556 -90.0292 174° South 135 155 600 300 Climbing Houston Center
10:44 30.0424 -90.0283 180° South  Level Estimated
10:51 30.0424 -90.0283 180° South  Level Estimated